Statesville, North Carolina
Current Conditions -  °F | °C
As of 5:15 AM on Friday 21 Nov 2014 (Local Time) from KSVH Reporting Station
Clear Clear  
Wind Chill: 30°   Ceiling: Unl
Heat Index: 36°   Visibility: 10mi
Dew Point: 18°   Wind: 7mph
Humidity: 48%   Direction: 340°NNW
Pressure: 30.25"   Gusts: NA
Location:  35.79°N, 80.89°W
Report Text: KSVH 211015Z AUTO 34006KT 10SM CLR 02/M08 A3025 RMK AO2 T00201079
Loading
Personal Weather Stations






























Interactive Weather Map New forecast layout! Learn more

10-Day Weather Forecast

Advertisements
Track Severe Weather on mobile